createdAt,value
2023-05-03T00:02:17.570Z,9.23
2023-05-03T00:04:46.240Z,9.23
2023-05-03T00:07:14.349Z,9.15
2023-05-03T00:09:42.054Z,9.12
2023-05-03T00:12:09.705Z,9.12
2023-05-03T00:14:38.626Z,9.07
2023-05-03T00:17:06.418Z,9.07
2023-05-03T00:19:35.595Z,9.08
2023-05-03T00:22:03.853Z,9.03
2023-05-03T00:24:31.539Z,9.11
2023-05-03T00:26:59.196Z,9.11
2023-05-03T00:29:26.796Z,9.07
2023-05-03T00:31:55.669Z,8.95
2023-05-03T00:34:23.327Z,8.91
2023-05-03T00:36:51.391Z,8.95
2023-05-03T00:39:19.044Z,8.97
2023-05-03T00:41:46.705Z,8.83
2023-05-03T00:44:14.464Z,8.75
2023-05-03T00:46:42.349Z,8.76
2023-05-03T00:49:11.579Z,8.84
2023-05-03T00:51:39.516Z,8.90
2023-05-03T00:54:07.345Z,8.88
2023-05-03T00:56:44.268Z,8.88
2023-05-03T00:59:16.061Z,8.86
2023-05-03T01:01:43.777Z,8.92
2023-05-03T01:04:12.871Z,8.89
2023-05-03T01:06:45.458Z,8.83
2023-05-03T01:09:18.860Z,8.85
2023-05-03T01:11:54.361Z,8.90
2023-05-03T01:14:30.719Z,8.78
2023-05-03T01:17:05.538Z,8.74
2023-05-03T01:19:38.863Z,8.71
2023-05-03T01:22:18.944Z,8.75
2023-05-03T01:24:51.960Z,8.76
2023-05-03T01:27:21.195Z,8.77
2023-05-03T01:29:48.819Z,8.74
2023-05-03T01:32:25.060Z,8.74
2023-05-03T01:35:02.802Z,8.76
2023-05-03T01:37:31.129Z,8.65
2023-05-03T01:40:02.314Z,8.50
2023-05-03T01:42:33.262Z,8.50
2023-05-03T01:45:04.021Z,8.40
2023-05-03T01:47:31.891Z,8.38
2023-05-03T01:49:59.592Z,8.41
2023-05-03T01:52:27.423Z,8.37
2023-05-03T01:54:55.085Z,8.37
2023-05-03T01:57:22.787Z,8.33
2023-05-03T01:59:51.824Z,8.28
2023-05-03T02:02:19.514Z,8.06
2023-05-03T02:04:47.353Z,7.80
2023-05-03T02:07:15.215Z,7.81
2023-05-03T02:09:42.904Z,7.83
2023-05-03T02:12:11.365Z,7.81
2023-05-03T02:14:39.208Z,7.83
2023-05-03T02:17:08.763Z,7.74
2023-05-03T02:19:36.501Z,7.81
2023-05-03T02:22:04.118Z,7.86
2023-05-03T02:24:31.770Z,7.89
2023-05-03T02:26:59.506Z,7.96
2023-05-03T02:29:27.167Z,7.95
2023-05-03T02:31:54.960Z,7.87
2023-05-03T02:34:24.334Z,7.88
2023-05-03T02:36:54.337Z,7.82
2023-05-03T02:39:21.999Z,7.83
2023-05-03T02:41:49.616Z,7.83
2023-05-03T02:44:17.389Z,7.83
2023-05-03T02:46:45.436Z,7.90
2023-05-03T02:49:13.326Z,7.89
2023-05-03T02:51:42.594Z,7.91
2023-05-03T02:54:10.260Z,7.83
2023-05-03T02:56:38.095Z,7.87
2023-05-03T02:59:05.798Z,7.81
2023-05-03T03:01:35.001Z,7.72
2023-05-03T03:04:02.736Z,7.62
2023-05-03T03:06:31.475Z,7.71
2023-05-03T03:09:00.665Z,7.75
2023-05-03T03:11:28.280Z,7.82
2023-05-03T03:13:55.954Z,7.88
2023-05-03T03:16:23.627Z,7.88
2023-05-03T03:18:51.421Z,7.89
2023-05-03T03:21:19.106Z,7.96
2023-05-03T03:23:46.756Z,7.98
2023-05-03T03:26:15.888Z,8.00
2023-05-03T03:28:43.557Z,7.83
2023-05-03T03:31:11.462Z,7.80
2023-05-03T03:33:39.179Z,7.82
2023-05-03T03:36:10.123Z,7.85
2023-05-03T03:38:37.775Z,7.80
2023-05-03T03:41:05.487Z,7.66
2023-05-03T03:43:34.429Z,7.63
2023-05-03T03:46:02.015Z,7.61
2023-05-03T03:48:29.627Z,7.60
2023-05-03T03:50:57.338Z,7.66
2023-05-03T03:53:24.972Z,7.61
2023-05-03T03:55:52.606Z,7.64
2023-05-03T03:58:20.370Z,7.57
2023-05-03T04:00:49.667Z,7.32
2023-05-03T04:03:17.595Z,7.33
2023-05-03T04:05:45.927Z,7.37
2023-05-03T04:08:13.698Z,7.49
2023-05-03T04:10:41.396Z,7.52
2023-05-03T04:13:09.274Z,7.56
2023-05-03T04:15:36.876Z,7.49
2023-05-03T04:18:06.583Z,7.54
2023-05-03T04:20:34.761Z,7.54
2023-05-03T04:23:02.586Z,7.49
2023-05-03T04:25:31.780Z,7.53
2023-05-03T04:27:59.918Z,7.52
2023-05-03T04:30:28.740Z,7.52
2023-05-03T04:32:58.392Z,7.43
2023-05-03T04:35:28.765Z,7.37
2023-05-03T04:37:56.836Z,7.31
2023-05-03T04:40:24.580Z,7.34
2023-05-03T04:42:52.401Z,7.53
2023-05-03T04:45:20.840Z,7.67
2023-05-03T04:47:48.853Z,7.78
2023-05-03T04:50:16.741Z,7.89
2023-05-03T04:52:45.822Z,7.95
2023-05-03T04:55:14.086Z,7.91
2023-05-03T04:57:41.721Z,8.04
2023-05-03T05:00:11.261Z,8.11
2023-05-03T05:02:39.291Z,8.09
2023-05-03T05:05:07.913Z,8.02
2023-05-03T05:07:35.585Z,7.76
2023-05-03T05:10:05.223Z,7.72
2023-05-03T05:12:33.149Z,7.63
2023-05-03T05:15:00.771Z,7.56
2023-05-03T05:17:28.567Z,7.66
2023-05-03T05:19:57.425Z,7.71
2023-05-03T05:22:26.097Z,7.63
2023-05-03T05:24:53.726Z,7.70
2023-05-03T05:27:23.787Z,7.54
2023-05-03T05:29:51.481Z,7.65
2023-05-03T05:32:19.136Z,7.69
2023-05-03T05:34:52.863Z,7.63
2023-05-03T05:37:20.508Z,7.86
2023-05-03T05:39:48.159Z,7.97
2023-05-03T05:42:16.104Z,7.84
2023-05-03T05:44:45.079Z,7.74
2023-05-03T05:47:15.168Z,7.97
2023-05-03T05:49:43.622Z,8.17
2023-05-03T05:52:11.400Z,8.30
2023-05-03T05:54:38.995Z,8.34
2023-05-03T05:57:06.698Z,8.31
2023-05-03T05:59:34.232Z,8.35
2023-05-03T06:02:03.423Z,8.44
2023-05-03T06:04:31.003Z,8.51
2023-05-03T06:06:58.615Z,8.57
2023-05-03T06:09:26.329Z,8.60
2023-05-03T06:11:53.938Z,8.65
2023-05-03T06:14:21.589Z,8.68
2023-05-03T06:16:49.413Z,8.72
2023-05-03T06:19:18.413Z,8.84
2023-05-03T06:21:46.068Z,8.84
2023-05-03T06:24:14.828Z,8.90
2023-05-03T06:26:42.476Z,8.94
2023-05-03T06:29:10.054Z,8.95
2023-05-03T06:31:37.796Z,9.01
2023-05-03T06:34:06.087Z,9.07
2023-05-03T06:36:35.660Z,9.14
2023-05-03T06:39:04.564Z,9.29
2023-05-03T06:41:32.855Z,9.48
2023-05-03T06:44:00.475Z,9.56
2023-05-03T06:46:28.528Z,9.60
2023-05-03T06:48:57.602Z,9.61
2023-05-03T06:51:29.745Z,9.56
2023-05-03T06:54:00.376Z,9.51
2023-05-03T06:56:28.510Z,9.57
2023-05-03T06:58:56.137Z,9.61
2023-05-03T07:01:23.775Z,9.70
2023-05-03T07:03:51.439Z,9.74
2023-05-03T07:06:19.309Z,9.81
2023-05-03T07:08:47.020Z,9.82
2023-05-03T07:11:16.054Z,9.88
2023-05-03T07:13:43.639Z,9.80
2023-05-03T07:16:11.347Z,9.71
2023-05-03T07:18:39.207Z,9.64
2023-05-03T07:21:09.201Z,9.63
2023-05-03T07:23:37.100Z,9.64
2023-05-03T07:26:04.777Z,9.64
2023-05-03T07:28:33.733Z,9.63
2023-05-03T07:31:01.529Z,9.62
2023-05-03T07:33:29.225Z,9.59
2023-05-03T07:35:57.151Z,9.70
2023-05-03T07:38:24.693Z,9.66
2023-05-03T07:40:52.288Z,9.64
2023-05-03T07:43:23.523Z,9.88
2023-05-03T07:45:52.429Z,10.13
2023-05-03T07:48:20.065Z,10.03
2023-05-03T07:50:47.783Z,9.85
2023-05-03T07:53:15.773Z,9.69
2023-05-03T07:55:43.518Z,9.71
2023-05-03T07:58:11.312Z,9.91
2023-05-03T08:00:38.904Z,10.17
2023-05-03T08:03:08.106Z,10.22
2023-05-03T08:05:36.672Z,10.40
2023-05-03T08:08:05.552Z,10.56
2023-05-03T08:10:37.600Z,10.51
2023-05-03T08:13:06.267Z,10.43
2023-05-03T08:15:34.281Z,10.27
2023-05-03T08:18:02.092Z,10.12
2023-05-03T08:20:31.266Z,10.07
2023-05-03T08:22:59.313Z,10.00
2023-05-03T08:25:28.241Z,10.14
2023-05-03T08:27:55.915Z,10.14
2023-05-03T08:30:23.992Z,10.09
2023-05-03T08:32:51.749Z,10.19
2023-05-03T08:35:19.562Z,10.45
2023-05-03T08:37:48.674Z,10.46
2023-05-03T08:40:16.666Z,10.48
2023-05-03T08:42:45.516Z,10.59
2023-05-03T08:45:16.118Z,10.65
2023-05-03T08:47:44.798Z,10.58
2023-05-03T08:50:14.080Z,10.56
2023-05-03T08:52:43.228Z,10.70
2023-05-03T08:55:12.354Z,10.72
2023-05-03T08:57:41.122Z,10.72
2023-05-03T09:00:11.103Z,10.76
2023-05-03T09:02:39.826Z,10.80
2023-05-03T09:05:32.610Z,10.89
2023-05-03T09:08:05.239Z,11.02
2023-05-03T09:10:37.552Z,11.07
2023-05-03T09:13:05.141Z,10.98
2023-05-03T09:15:33.064Z,10.92
2023-05-03T09:18:12.219Z,10.92
2023-05-03T09:20:41.814Z,10.80
2023-05-03T09:23:10.553Z,10.84
2023-05-03T09:25:46.884Z,10.88
2023-05-03T09:28:15.393Z,11.03
2023-05-03T09:30:44.579Z,11.04
2023-05-03T09:33:12.406Z,11.01
2023-05-03T09:35:56.180Z,10.95
2023-05-03T09:38:28.023Z,11.07
2023-05-03T09:40:57.482Z,11.04
2023-05-03T09:43:25.517Z,11.09
2023-05-03T09:45:54.317Z,11.21
2023-05-03T09:48:23.711Z,11.29
2023-05-03T09:50:52.320Z,11.31
2023-05-03T09:53:22.290Z,11.30
2023-05-03T09:55:51.144Z,11.19
2023-05-03T09:58:21.735Z,11.16
2023-05-03T10:00:52.571Z,11.19
2023-05-03T10:03:25.487Z,11.37
2023-05-03T10:05:54.023Z,11.35
2023-05-03T10:08:28.868Z,11.30
2023-05-03T10:10:56.709Z,11.36
2023-05-03T10:13:26.025Z,11.47
2023-05-03T10:15:59.737Z,11.43
2023-05-03T10:18:31.915Z,11.28
2023-05-03T10:21:04.521Z,11.32
2023-05-03T10:23:32.245Z,11.31
2023-05-03T10:26:16.230Z,11.27
2023-05-03T10:28:45.812Z,11.36
2023-05-03T10:31:45.898Z,11.37
2023-05-03T10:34:24.612Z,11.33
2023-05-03T10:36:54.205Z,11.33
2023-05-03T10:39:22.003Z,11.49
2023-05-03T10:42:09.233Z,11.62
2023-05-03T10:44:42.405Z,11.64
2023-05-03T10:47:14.643Z,11.59
2023-05-03T10:49:42.544Z,11.56
2023-05-03T10:52:48.993Z,11.62
2023-05-03T10:55:18.737Z,11.59
2023-05-03T10:57:48.069Z,11.47
2023-05-03T11:00:22.030Z,11.44
2023-05-03T11:03:10.881Z,11.59
2023-05-03T11:05:39.430Z,11.52
2023-05-03T11:08:14.922Z,11.65
2023-05-03T11:10:42.687Z,11.76
2023-05-03T11:13:10.422Z,11.77
2023-05-03T11:15:40.000Z,11.76
2023-05-03T11:18:08.407Z,11.81
2023-05-03T11:20:37.047Z,11.80
2023-05-03T11:23:05.869Z,11.91
2023-05-03T11:25:34.338Z,11.92
2023-05-03T11:28:02.497Z,12.03
2023-05-03T11:30:30.617Z,12.18
2023-05-03T11:33:00.409Z,12.33
2023-05-03T11:35:30.309Z,12.24
2023-05-03T11:37:57.969Z,12.47
2023-05-03T11:40:26.166Z,12.71
2023-05-03T11:42:58.835Z,12.84
2023-05-03T11:45:30.591Z,13.03
2023-05-03T11:48:00.261Z,13.19
2023-05-03T11:50:44.506Z,13.31
2023-05-03T11:53:12.895Z,13.49
2023-05-03T11:55:42.982Z,13.58
2023-05-03T11:58:14.509Z,13.63
2023-05-03T12:00:45.041Z,13.74
2023-05-03T12:03:17.963Z,13.89
2023-05-03T12:05:48.383Z,14.00
2023-05-03T12:08:20.987Z,14.29
2023-05-03T12:10:50.880Z,14.58
2023-05-03T12:13:30.487Z,14.80
2023-05-03T12:16:10.832Z,14.90
2023-05-03T12:18:51.395Z,15.00
2023-05-03T12:23:55.797Z,15.23
2023-05-03T12:26:26.370Z,15.29
2023-05-03T12:28:56.654Z,15.36
2023-05-03T12:31:24.972Z,15.47
2023-05-03T12:34:19.767Z,15.47
2023-05-03T12:36:48.684Z,15.74
2023-05-03T12:39:16.957Z,15.74
2023-05-03T12:44:17.230Z,15.65
2023-05-03T12:46:45.847Z,15.73
2023-05-03T12:49:15.791Z,15.74
2023-05-03T12:51:46.361Z,15.91
2023-05-03T12:54:18.965Z,15.92
2023-05-03T12:56:48.309Z,15.95
2023-05-03T13:02:41.570Z,16.04
2023-05-03T13:04:55.916Z,16.05
2023-05-03T13:07:28.486Z,16.22
2023-05-03T13:12:28.620Z,16.43
2023-05-03T13:14:56.420Z,16.52
2023-05-03T13:17:24.135Z,16.56
2023-05-03T13:19:53.998Z,16.73
2023-05-03T13:22:21.745Z,16.65
2023-05-03T13:24:50.067Z,16.69
2023-05-03T13:27:17.923Z,16.79
2023-05-03T13:29:48.318Z,17.02
2023-05-03T13:32:17.159Z,16.97
2023-05-03T13:34:45.231Z,17.15
2023-05-03T13:37:18.289Z,17.30
2023-05-03T13:39:46.668Z,17.43
2023-05-03T13:42:14.426Z,17.47
2023-05-03T13:44:42.579Z,17.54
2023-05-03T13:47:10.515Z,17.27
2023-05-03T13:49:38.175Z,17.46
2023-05-03T13:52:05.975Z,17.56
2023-05-03T13:54:35.042Z,17.57
2023-05-03T13:57:02.704Z,17.64
2023-05-03T13:59:30.760Z,17.73
2023-05-03T14:02:00.319Z,17.79
2023-05-03T14:04:28.023Z,17.85
2023-05-03T14:06:55.780Z,17.96
2023-05-03T14:09:23.564Z,17.99
2023-05-03T14:11:53.687Z,18.04
2023-05-03T14:14:22.409Z,18.03
2023-05-03T14:16:50.213Z,18.04
2023-05-03T14:19:18.228Z,18.22
2023-05-03T14:21:49.479Z,18.34
2023-05-03T14:24:17.259Z,18.30
2023-05-03T14:26:45.225Z,18.27
2023-05-03T14:29:15.252Z,18.53
2023-05-03T14:31:43.315Z,18.61
2023-05-03T14:34:12.929Z,18.57
2023-05-03T14:36:43.696Z,18.51
2023-05-03T14:39:14.365Z,18.55
2023-05-03T14:41:45.206Z,18.67
2023-05-03T14:44:14.219Z,18.46
2023-05-03T14:46:42.008Z,18.25
2023-05-03T14:49:09.838Z,18.29
2023-05-03T14:51:37.549Z,18.23
2023-05-03T14:54:05.164Z,18.17
2023-05-03T14:56:32.944Z,18.31
2023-05-03T14:59:01.266Z,18.38
2023-05-03T15:01:33.024Z,18.41
2023-05-03T15:04:00.819Z,18.40
2023-05-03T15:06:31.466Z,18.35
2023-05-03T15:08:59.477Z,18.06
2023-05-03T15:11:28.142Z,17.96
2023-05-03T15:13:55.935Z,17.80
2023-05-03T15:16:24.127Z,17.49
2023-05-03T15:18:53.123Z,17.13
2023-05-03T15:21:22.214Z,17.08
2023-05-03T15:23:51.546Z,17.04
2023-05-03T15:26:19.129Z,16.90
2023-05-03T15:28:46.788Z,16.82
2023-05-03T15:31:15.126Z,16.45
2023-05-03T15:33:45.839Z,16.64
2023-05-03T15:36:16.654Z,16.62
2023-05-03T15:38:44.748Z,16.59
2023-05-03T15:41:12.393Z,16.71
2023-05-03T15:43:40.020Z,16.81
2023-05-03T15:46:08.044Z,16.82
2023-05-03T15:48:36.098Z,16.60
2023-05-03T15:51:03.908Z,16.62
2023-05-03T15:53:33.002Z,16.50
2023-05-03T15:56:02.438Z,16.55
2023-05-03T15:58:30.429Z,16.55
2023-05-03T16:00:59.134Z,16.36
2023-05-03T16:03:28.524Z,16.22
2023-05-03T16:05:57.049Z,16.11
2023-05-03T16:08:24.623Z,16.09
2023-05-03T16:10:53.709Z,15.89
2023-05-03T16:13:21.948Z,15.91
2023-05-03T16:15:52.349Z,15.87
2023-05-03T16:18:20.366Z,15.78
2023-05-03T16:20:47.970Z,15.57
2023-05-03T16:23:15.850Z,15.49
2023-05-03T16:25:43.704Z,15.49
2023-05-03T16:28:12.922Z,15.57
2023-05-03T16:30:41.002Z,15.61
2023-05-03T16:33:08.873Z,15.52
2023-05-03T16:35:36.553Z,15.41
2023-05-03T16:38:06.598Z,15.27
2023-05-03T16:40:34.369Z,15.25
2023-05-03T16:43:02.091Z,15.26
2023-05-03T16:45:31.423Z,15.25
2023-05-03T16:48:00.047Z,15.26
2023-05-03T16:50:29.248Z,15.26
2023-05-03T16:52:56.956Z,15.19
2023-05-03T16:55:24.531Z,15.14
2023-05-03T16:57:52.181Z,15.14
2023-05-03T17:00:20.877Z,15.14
2023-05-03T17:02:49.973Z,15.05
2023-05-03T17:05:20.013Z,15.05
2023-05-03T17:07:47.658Z,14.96
2023-05-03T17:10:15.609Z,14.94
2023-05-03T17:12:43.528Z,14.94
2023-05-03T17:15:12.274Z,14.92
2023-05-03T17:17:40.300Z,14.96
2023-05-03T17:20:12.883Z,15.00
2023-05-03T17:22:40.514Z,15.03
2023-05-03T17:25:09.609Z,15.01
2023-05-03T17:27:37.979Z,15.04
2023-05-03T17:30:06.848Z,14.95
2023-05-03T17:32:34.722Z,15.01
2023-05-03T17:35:02.531Z,15.03
2023-05-03T17:37:31.509Z,15.06
2023-05-03T17:39:59.168Z,15.03
2023-05-03T17:42:27.122Z,14.95
2023-05-03T17:44:55.228Z,14.92
2023-05-03T17:47:25.395Z,14.93
2023-05-03T17:49:53.285Z,14.88
2023-05-03T17:52:21.072Z,14.81
2023-05-03T17:54:51.070Z,14.76
2023-05-03T17:57:20.456Z,14.74
2023-05-03T17:59:48.696Z,14.73
2023-05-03T18:02:17.470Z,14.63
2023-05-03T18:04:45.179Z,14.62
2023-05-03T18:07:14.929Z,14.61
2023-05-03T18:09:42.537Z,14.59
2023-05-03T18:12:13.840Z,14.61
2023-05-03T18:14:42.577Z,14.56
2023-05-03T18:17:10.379Z,14.58
2023-05-03T18:19:37.939Z,14.58
2023-05-03T18:22:07.040Z,14.62
2023-05-03T18:24:34.608Z,14.63
2023-05-03T18:27:02.523Z,14.64
2023-05-03T18:29:31.431Z,14.62
2023-05-03T18:32:01.227Z,14.59
2023-05-03T18:34:30.506Z,14.61
2023-05-03T18:37:00.266Z,14.54
2023-05-03T18:39:27.980Z,14.55
2023-05-03T18:41:56.632Z,14.50
2023-05-03T18:44:25.668Z,14.48
2023-05-03T18:46:55.443Z,14.47
2023-05-03T18:49:23.633Z,14.40
2023-05-03T18:51:51.452Z,14.35
2023-05-03T18:54:20.451Z,14.32
2023-05-03T18:56:48.359Z,14.34
2023-05-03T18:59:16.190Z,14.30
2023-05-03T19:01:44.310Z,14.30
2023-05-03T19:04:14.625Z,14.28
2023-05-03T19:06:42.492Z,14.29
2023-05-03T19:09:11.818Z,14.26
2023-05-03T19:11:41.804Z,14.19
2023-05-03T19:14:09.741Z,14.18
2023-05-03T19:16:37.499Z,14.15
2023-05-03T19:19:05.467Z,14.15
2023-05-03T19:21:37.860Z,14.14
2023-05-03T19:24:06.550Z,14.13
2023-05-03T19:26:34.125Z,14.06
2023-05-03T19:29:02.040Z,14.00
2023-05-03T19:31:30.257Z,13.97
2023-05-03T19:33:57.822Z,14.00
2023-05-03T19:36:25.626Z,14.02
2023-05-03T19:38:54.776Z,14.06
2023-05-03T19:41:22.842Z,14.07
2023-05-03T19:43:55.134Z,14.10
2023-05-03T19:46:22.900Z,14.13
2023-05-03T19:48:50.560Z,14.14
2023-05-03T19:51:18.714Z,14.13
2023-05-03T19:53:48.740Z,14.10
2023-05-03T19:56:19.550Z,14.05
2023-05-03T19:58:47.354Z,14.03
2023-05-03T20:01:14.993Z,14.08
2023-05-03T20:03:43.471Z,14.16
2023-05-03T20:06:14.663Z,14.24
2023-05-03T20:08:42.436Z,14.26
2023-05-03T20:11:10.980Z,14.29
2023-05-03T20:13:40.338Z,14.31
2023-05-03T20:16:08.136Z,14.30
2023-05-03T20:18:35.996Z,14.28
2023-05-03T20:21:05.718Z,14.28
2023-05-03T20:23:37.835Z,14.27
2023-05-03T20:26:08.158Z,14.19
2023-05-03T20:28:37.235Z,14.02
2023-05-03T20:31:06.734Z,13.91
2023-05-03T20:33:34.557Z,13.83
2023-05-03T20:36:02.643Z,13.81
2023-05-03T20:38:30.487Z,13.71
2023-05-03T20:40:58.150Z,13.65
2023-05-03T20:43:25.994Z,13.61
2023-05-03T20:45:54.254Z,13.58
2023-05-03T20:48:23.429Z,13.54
2023-05-03T20:50:51.093Z,13.46
2023-05-03T20:53:18.746Z,13.41
2023-05-03T20:55:46.965Z,13.38
2023-05-03T20:58:15.988Z,13.36
2023-05-03T21:00:43.554Z,13.27
2023-05-03T21:03:15.499Z,13.27
2023-05-03T21:05:44.498Z,13.29
2023-05-03T21:08:12.206Z,13.23
2023-05-03T21:10:40.678Z,13.22
2023-05-03T21:13:08.651Z,13.20
2023-05-03T21:15:37.958Z,13.19
2023-05-03T21:18:06.563Z,13.17
2023-05-03T21:20:34.520Z,13.14
2023-05-03T21:23:03.529Z,13.11
2023-05-03T21:25:31.212Z,13.09
2023-05-03T21:28:01.342Z,12.97
2023-05-03T21:30:29.002Z,12.94
2023-05-03T21:32:57.026Z,12.91
2023-05-03T21:35:28.266Z,12.84
2023-05-03T21:38:02.092Z,12.76
2023-05-03T21:40:33.787Z,12.73
2023-05-03T21:43:04.226Z,12.66
2023-05-03T21:45:32.226Z,12.62
2023-05-03T21:48:00.583Z,12.60
2023-05-03T21:50:28.797Z,12.59
2023-05-03T21:52:56.363Z,12.55
2023-05-03T21:55:23.942Z,12.54
2023-05-03T21:57:52.938Z,12.54
2023-05-03T22:00:20.790Z,12.49
2023-05-03T22:02:48.575Z,12.49
2023-05-03T22:05:16.374Z,12.52
2023-05-03T22:07:44.444Z,12.50
2023-05-03T22:10:12.048Z,12.47
2023-05-03T22:12:40.293Z,12.36
2023-05-03T22:15:10.681Z,12.26
2023-05-03T22:17:38.590Z,12.23
2023-05-03T22:20:07.685Z,12.25
2023-05-03T22:22:35.417Z,12.22
2023-05-03T22:25:03.194Z,12.19
2023-05-03T22:27:30.813Z,12.15
2023-05-03T22:29:58.373Z,12.13
2023-05-03T22:32:27.327Z,12.12
2023-05-03T22:34:54.960Z,12.12
2023-05-03T22:37:22.978Z,12.12
2023-05-03T22:39:50.559Z,12.09
2023-05-03T22:42:18.386Z,12.02
2023-05-03T22:44:45.948Z,11.93
2023-05-03T22:47:13.537Z,11.87
2023-05-03T22:49:42.465Z,11.88
2023-05-03T22:52:10.057Z,11.74
2023-05-03T22:54:37.702Z,11.69
2023-05-03T22:57:05.729Z,11.69
2023-05-03T22:59:33.540Z,11.66
2023-05-03T23:02:01.146Z,11.65
2023-05-03T23:04:28.703Z,11.77
2023-05-03T23:06:57.807Z,11.76
2023-05-03T23:09:25.702Z,11.77
2023-05-03T23:11:53.225Z,11.80
2023-05-03T23:14:20.833Z,11.77
2023-05-03T23:16:48.594Z,11.71
2023-05-03T23:19:16.202Z,11.75
2023-05-03T23:21:43.923Z,11.69
2023-05-03T23:24:12.854Z,11.63
2023-05-03T23:26:40.396Z,11.63
2023-05-03T23:29:09.429Z,11.60
2023-05-03T23:31:38.455Z,11.55
2023-05-03T23:34:06.927Z,11.53
2023-05-03T23:36:34.547Z,11.53
2023-05-03T23:39:02.796Z,11.48
2023-05-03T23:41:33.255Z,11.41
2023-05-03T23:44:00.847Z,11.38
2023-05-03T23:46:28.521Z,11.33
2023-05-03T23:48:56.182Z,11.29
2023-05-03T23:51:23.758Z,11.27
2023-05-03T23:53:51.412Z,11.25
2023-05-03T23:56:19.062Z,11.23
2023-05-03T23:58:47.988Z,11.20
